createdAt,value
2022-10-06T00:03:23.558Z,100.00
2022-10-06T00:08:25.158Z,100.00
2022-10-06T00:13:27.358Z,98.29
2022-10-06T00:18:29.805Z,99.06
2022-10-06T00:23:31.581Z,98.26
2022-10-06T00:28:33.490Z,96.10
2022-10-06T00:33:35.257Z,94.37
2022-10-06T00:38:36.571Z,94.25
2022-10-06T00:43:54.729Z,95.21
2022-10-06T00:48:59.920Z,93.98
2022-10-06T00:54:02.594Z,93.12
2022-10-06T00:59:03.912Z,92.64
2022-10-06T01:04:08.682Z,94.43
2022-10-06T01:09:09.990Z,95.99
2022-10-06T01:14:11.613Z,99.23
2022-10-06T01:19:31.794Z,100.00
2022-10-06T01:24:33.134Z,100.00
2022-10-06T01:29:35.346Z,100.00
2022-10-06T01:34:36.683Z,96.94
2022-10-06T01:39:37.992Z,93.10
2022-10-06T01:44:39.571Z,90.12
2022-10-06T01:49:40.904Z,89.95
2022-10-06T01:54:42.484Z,86.80
2022-10-06T01:59:43.853Z,85.59
2022-10-06T02:04:46.093Z,84.94
2022-10-06T02:09:47.419Z,85.99
2022-10-06T02:14:48.734Z,85.17
2022-10-06T02:19:50.264Z,86.43
2022-10-06T02:24:51.558Z,85.51
2022-10-06T02:29:52.899Z,85.55
2022-10-06T02:34:55.878Z,86.42
2022-10-06T02:39:57.242Z,88.42
2022-10-06T02:44:59.010Z,90.40
2022-10-06T02:50:01.941Z,92.93
2022-10-06T02:55:04.129Z,95.67
2022-10-06T03:00:07.273Z,96.32
2022-10-06T03:05:08.595Z,97.49
2022-10-06T03:10:09.915Z,97.43
2022-10-06T03:15:11.214Z,98.33
2022-10-06T03:20:12.523Z,95.79
2022-10-06T03:25:13.850Z,96.98
2022-10-06T03:30:15.522Z,97.18
2022-10-06T03:35:16.824Z,95.26
2022-10-06T03:40:18.224Z,98.07
2022-10-06T03:45:19.511Z,99.60
2022-10-06T03:50:20.808Z,100.00
2022-10-06T03:55:22.118Z,100.00
2022-10-06T04:00:23.400Z,100.00
2022-10-06T04:05:24.709Z,100.00
2022-10-06T04:10:26.715Z,100.00
2022-10-06T04:15:28.042Z,100.00
2022-10-06T04:20:29.597Z,100.00
2022-10-06T04:25:31.361Z,100.00
2022-10-06T04:30:32.703Z,100.00
2022-10-06T04:35:34.023Z,100.00
2022-10-06T04:40:35.330Z,100.00
2022-10-06T04:45:36.692Z,100.00
2022-10-06T04:50:38.034Z,100.00
2022-10-06T04:55:39.329Z,100.00
2022-10-06T05:00:41.070Z,100.00
2022-10-06T05:05:42.397Z,100.00
2022-10-06T05:10:43.728Z,100.00
2022-10-06T05:15:54.716Z,100.00
2022-10-06T05:21:04.414Z,100.00
2022-10-06T05:26:08.387Z,100.00
2022-10-06T05:31:14.462Z,100.00
2022-10-06T05:36:16.802Z,100.00
2022-10-06T05:41:22.495Z,100.00
2022-10-06T05:46:25.360Z,100.00
2022-10-06T05:51:31.045Z,100.00
2022-10-06T05:56:37.134Z,100.00
2022-10-06T06:01:42.164Z,100.00
2022-10-06T06:06:44.840Z,100.00
2022-10-06T06:11:47.511Z,100.00
2022-10-06T06:16:48.880Z,100.00
2022-10-06T06:21:52.018Z,93.50
2022-10-06T06:26:53.389Z,85.68
2022-10-06T06:31:54.694Z,78.84
2022-10-06T06:37:03.601Z,73.52
2022-10-06T06:42:08.539Z,72.34
2022-10-06T06:47:09.932Z,69.50
2022-10-06T06:52:11.455Z,63.52
2022-10-06T06:57:12.775Z,57.06
2022-10-06T07:02:14.145Z,59.49
2022-10-06T07:07:15.582Z,65.15
2022-10-06T07:12:16.918Z,71.70
2022-10-06T07:17:36.746Z,68.37
2022-10-06T07:22:56.936Z,66.58
2022-10-06T07:27:58.305Z,71.97
2022-10-06T07:32:59.654Z,77.08
2022-10-06T07:38:02.169Z,71.71
2022-10-06T07:43:03.569Z,68.73
2022-10-06T07:48:05.626Z,66.78
2022-10-06T07:53:10.191Z,60.17
2022-10-06T07:58:18.703Z,66.17
2022-10-06T08:03:21.012Z,60.64
2022-10-06T08:08:22.438Z,58.09
2022-10-06T08:13:24.088Z,54.06
2022-10-06T08:18:45.577Z,58.01
2022-10-06T08:23:47.930Z,48.44
2022-10-06T08:28:53.357Z,49.16
2022-10-06T08:33:57.332Z,42.68
2022-10-06T08:38:58.709Z,46.58
2022-10-06T08:44:04.427Z,44.98
2022-10-06T08:49:06.571Z,46.90
2022-10-06T08:54:12.730Z,41.85
2022-10-06T08:59:16.208Z,41.55
2022-10-06T09:04:29.309Z,42.57
2022-10-06T09:09:43.141Z,38.70
2022-10-06T09:14:49.106Z,41.24
2022-10-06T09:19:55.251Z,35.68
2022-10-06T09:25:08.703Z,31.98
2022-10-06T09:30:13.339Z,34.77
2022-10-06T09:35:19.392Z,33.05
2022-10-06T09:40:38.841Z,32.19
2022-10-06T09:45:40.152Z,34.55
2022-10-06T09:50:42.480Z,36.89
2022-10-06T09:55:45.684Z,34.29
2022-10-06T10:00:57.791Z,38.07
2022-10-06T10:06:02.159Z,34.82
2022-10-06T10:11:29.570Z,33.67
2022-10-06T10:16:34.353Z,32.33
2022-10-06T10:21:37.055Z,38.71
2022-10-06T10:27:04.810Z,35.17
2022-10-06T10:32:12.691Z,32.94
2022-10-06T10:37:16.310Z,34.05
2022-10-06T10:42:21.743Z,29.83
2022-10-06T10:47:25.931Z,29.68
2022-10-06T10:52:30.453Z,31.37
2022-10-06T10:57:37.115Z,36.49
2022-10-06T11:02:40.179Z,34.44
2022-10-06T11:08:01.468Z,32.06
2022-10-06T11:13:10.224Z,28.07
2022-10-06T11:18:30.144Z,31.89
2022-10-06T11:23:31.428Z,32.64
2022-10-06T11:28:39.326Z,28.72
2022-10-06T11:33:50.428Z,31.29
2022-10-06T11:38:56.490Z,28.48
2022-10-06T11:44:13.641Z,32.45
2022-10-06T11:49:30.130Z,28.92
2022-10-06T11:54:40.371Z,29.32
2022-10-06T11:59:41.962Z,30.63
2022-10-06T12:05:03.210Z,28.99
2022-10-06T12:10:23.340Z,29.86
2022-10-06T12:21:06.199Z,28.40
2022-10-06T12:26:17.253Z,30.03
2022-10-06T12:31:18.741Z,32.64
2022-10-06T12:36:22.899Z,30.36
2022-10-06T12:41:44.469Z,33.22
2022-10-06T12:46:46.837Z,32.42
2022-10-06T12:51:51.363Z,33.09
2022-10-06T12:56:58.922Z,34.67
2022-10-06T13:02:12.832Z,32.61
2022-10-06T13:07:22.333Z,34.54
2022-10-06T13:12:25.536Z,33.48
2022-10-06T13:17:26.864Z,36.59
2022-10-06T13:22:28.201Z,35.02
2022-10-06T13:27:29.564Z,36.20
2022-10-06T13:32:30.878Z,33.31
2022-10-06T13:37:32.337Z,35.54
2022-10-06T13:42:33.683Z,34.02
2022-10-06T13:47:35.006Z,33.23
2022-10-06T13:52:38.087Z,34.80
2022-10-06T13:57:39.482Z,34.01
2022-10-06T14:02:41.769Z,33.70
2022-10-06T14:07:43.941Z,35.71
2022-10-06T14:12:46.035Z,33.93
2022-10-06T14:17:56.296Z,35.07
2022-10-06T14:22:57.595Z,33.38
2022-10-06T14:27:58.932Z,35.41
2022-10-06T14:33:00.259Z,36.78
2022-10-06T14:38:01.615Z,38.92
2022-10-06T14:43:02.970Z,38.51
2022-10-06T14:48:04.536Z,39.91
2022-10-06T14:53:05.916Z,41.49
2022-10-06T14:58:07.259Z,39.91
2022-10-06T15:03:08.636Z,41.31
2022-10-06T15:08:10.464Z,42.19
2022-10-06T15:13:11.782Z,41.24
2022-10-06T15:18:14.093Z,42.00
2022-10-06T15:23:15.487Z,44.08
2022-10-06T15:28:35.508Z,44.74
2022-10-06T15:33:36.892Z,45.60
2022-10-06T15:38:38.194Z,46.02
2022-10-06T15:43:55.118Z,46.11
2022-10-06T15:49:01.203Z,43.73
2022-10-06T15:54:02.570Z,44.99
2022-10-06T15:59:04.551Z,45.39
2022-10-06T16:04:12.402Z,46.20
2022-10-06T16:09:13.767Z,50.78
2022-10-06T16:14:15.599Z,53.62
2022-10-06T16:19:17.649Z,55.21
2022-10-06T16:24:19.869Z,57.46
2022-10-06T16:29:21.674Z,59.68
2022-10-06T16:34:23.110Z,62.51
2022-10-06T16:39:24.604Z,62.67
2022-10-06T16:44:25.954Z,67.53
2022-10-06T16:49:28.239Z,68.86
2022-10-06T16:54:29.624Z,72.19
2022-10-06T16:59:30.951Z,73.08
2022-10-06T17:04:32.252Z,72.69
2022-10-06T17:09:33.577Z,73.83
2022-10-06T17:14:35.527Z,75.34
2022-10-06T17:19:36.835Z,77.15
2022-10-06T17:24:38.198Z,79.70
2022-10-06T17:29:39.544Z,82.18
2022-10-06T17:34:40.854Z,83.53
2022-10-06T17:39:46.834Z,88.09
2022-10-06T17:44:48.591Z,86.64
2022-10-06T17:49:49.949Z,88.53
2022-10-06T17:54:52.071Z,87.62
2022-10-06T17:59:53.564Z,92.06
2022-10-06T18:04:54.904Z,90.92
2022-10-06T18:10:14.870Z,94.26
2022-10-06T18:15:16.297Z,92.43
2022-10-06T18:20:17.592Z,91.50
2022-10-06T18:25:24.438Z,94.65
2022-10-06T18:30:29.391Z,93.76
2022-10-06T18:40:54.443Z,96.96
2022-10-06T18:46:14.665Z,96.13
2022-10-06T18:51:16.190Z,97.24
2022-10-06T18:56:17.498Z,97.71
2022-10-06T19:01:19.525Z,100.00
2022-10-06T19:06:21.355Z,100.00
2022-10-06T19:11:41.685Z,100.00
2022-10-06T19:16:43.378Z,100.00
2022-10-06T19:21:46.946Z,100.00
2022-10-06T19:26:49.882Z,100.00
2022-10-06T19:31:52.672Z,100.00
2022-10-06T19:36:54.397Z,100.00
2022-10-06T19:42:14.683Z,100.00
2022-10-06T19:47:16.029Z,100.00
2022-10-06T19:52:17.398Z,100.00
2022-10-06T19:57:18.742Z,100.00
2022-10-06T20:02:20.340Z,100.00
2022-10-06T20:07:25.316Z,100.00
2022-10-06T20:12:28.271Z,100.00
2022-10-06T20:17:29.595Z,100.00
2022-10-06T20:22:31.739Z,100.00
2022-10-06T20:27:33.116Z,100.00
2022-10-06T20:32:34.783Z,100.00
2022-10-06T20:37:38.287Z,100.00
2022-10-06T20:42:44.697Z,100.00
2022-10-06T20:47:47.785Z,100.00
2022-10-06T20:52:49.191Z,100.00
2022-10-06T20:57:50.770Z,100.00
2022-10-06T21:02:52.489Z,100.00
2022-10-06T21:07:54.050Z,100.00
2022-10-06T21:12:55.948Z,100.00
2022-10-06T21:17:57.447Z,100.00
2022-10-06T21:22:58.956Z,100.00
2022-10-06T21:28:00.481Z,100.00
2022-10-06T21:33:02.014Z,100.00
2022-10-06T21:38:03.912Z,100.00
2022-10-06T21:43:05.468Z,100.00
2022-10-06T21:48:07.000Z,100.00
2022-10-06T21:53:08.549Z,100.00
2022-10-06T21:58:10.063Z,100.00
2022-10-06T22:03:11.664Z,100.00
2022-10-06T22:08:13.479Z,100.00
2022-10-06T22:13:14.978Z,100.00
2022-10-06T22:18:16.478Z,100.00
2022-10-06T22:23:17.983Z,100.00
2022-10-06T22:28:20.880Z,100.00
2022-10-06T22:33:22.927Z,100.00
2022-10-06T22:38:24.507Z,100.00
2022-10-06T22:43:25.993Z,100.00
2022-10-06T22:48:27.895Z,100.00
2022-10-06T22:53:31.363Z,100.00
2022-10-06T22:58:32.936Z,100.00
2022-10-06T23:03:34.469Z,100.00
2022-10-06T23:08:37.237Z,100.00
2022-10-06T23:13:39.039Z,100.00
2022-10-06T23:18:41.203Z,100.00
2022-10-06T23:23:42.711Z,100.00
2022-10-06T23:28:44.679Z,100.00
2022-10-06T23:33:46.361Z,100.00
2022-10-06T23:38:47.927Z,100.00
2022-10-06T23:43:49.796Z,100.00
2022-10-06T23:48:51.341Z,100.00
2022-10-06T23:53:52.968Z,100.00
2022-10-06T23:58:54.451Z,100.00
